Observation data for Silverton on 01/17/2021      Previous  Date  Next       Current Mesonet Observations  Soil Data  Daily Summary Page  Observations in Plain Language
KSVS 170600Z 29007KT M03/M08 A3009 RMK A01 T10291078  RH  069%=      5-min Rain = 0
KSVS 170605Z 29008KT M03/M08 A3009 RMK A01 T10321078  RH  071%=      5-min Rain = 0
KSVS 170610Z 29009KT M03/M07 A3009 RMK A01 T10291073  RH  072%=      5-min Rain = 0
KSVS 170615Z 29008KT M03/M08 A301 RMK A01 T10301075  RH  071%=      5-min Rain = 0
KSVS 170620Z 29009KT M04/M08 A301 RMK A01 T10361077  RH  073%=      5-min Rain = 0
KSVS 170625Z 29008KT M03/M07 A301 RMK A01 T10341074  RH  074%=      5-min Rain = 0
KSVS 170630Z 29008KT M03/M07 A301 RMK A01 T10331074  RH  073%=      5-min Rain = 0
KSVS 170635Z 29007KT M03/M07 A301 RMK A01 T10301072  RH  073%=      5-min Rain = 0
KSVS 170640Z 28007KT M03/M07 A3009 RMK A01 T10321074  RH  072%=      5-min Rain = 0
KSVS 170645Z 28006KT M04/M08 A3009 RMK A01 T10371077  RH  074%=      5-min Rain = 0
KSVS 170650Z 28007KT M04/M08 A3009 RMK A01 T10401078  RH  074%=      5-min Rain = 0
KSVS 170655Z 28007KT M04/M08 A3009 RMK A01 T10411078  RH  076%=      5-min Rain = 0
KSVS 170700Z 28008KT M04/M08 A3009 RMK A01 T10411075  RH  078%=      5-min Rain = 0
KSVS 170705Z 29008KT M04/M07 A3009 RMK A01 T10401072  RH  078%=      5-min Rain = 0
KSVS 170710Z 29008KT M04/M07 A3009 RMK A01 T10391070  RH  079%=      5-min Rain = 0
KSVS 170715Z 29009KT M04/M07 A3009 RMK A01 T10351065  RH  080%=      5-min Rain = 0
KSVS 170720Z 28008KT M03/M06 A301 RMK A01 T10321064  RH  079%=      5-min Rain = 0
KSVS 170725Z 29008KT M03/M07 A301 RMK A01 T10321065  RH  079%=      5-min Rain = 0
KSVS 170730Z 29008KT M03/M07 A301 RMK A01 T10331065  RH  079%=      5-min Rain = 0
KSVS 170735Z 29008KT M04/M07 A301 RMK A01 T10351066  RH  080%=      5-min Rain = 0
KSVS 170740Z 29008KT M03/M06 A301 RMK A01 T10331063  RH  080%=      5-min Rain = 0
KSVS 170745Z 29008KT M03/M06 A301 RMK A01 T10341063  RH  081%=      5-min Rain = 0
KSVS 170750Z 29008KT M04/M06 A301 RMK A01 T10361064  RH  081%=      5-min Rain = 0
KSVS 170755Z 30008KT M04/M07 A301 RMK A01 T10391067  RH  081%=      5-min Rain = 0
KSVS 170800Z 30009KT M04/M06 A301 RMK A01 T10391062  RH  084%=      5-min Rain = 0
KSVS 170805Z 30007KT M03/M05 A301 RMK A01 T10281053  RH  083%=      5-min Rain = 0
KSVS 170810Z 30007KT M03/M06 A301 RMK A01 T10281055  RH  082%=      5-min Rain = 0
KSVS 170815Z 30008KT M02/M05 A3011 RMK A01 T10221049  RH  082%=      5-min Rain = 0
KSVS 170820Z 30007KT M02/M05 A3011 RMK A01 T10191051  RH  079%=      5-min Rain = 0
KSVS 170825Z 30006KT M03/M06 A3011 RMK A01 T10261055  RH  080%=      5-min Rain = 0
KSVS 170830Z 30006KT M03/M06 A3011 RMK A01 T10311059  RH  081%=      5-min Rain = 0
KSVS 170835Z 30007KT M04/M06 A3011 RMK A01 T10351060  RH  083%=      5-min Rain = 0
KSVS 170840Z 30008KT M04/M06 A3011 RMK A01 T10351059  RH  084%=      5-min Rain = 0
KSVS 170845Z 30008KT M04/M06 A3011 RMK A01 T10351058  RH  084%=      5-min Rain = 0
KSVS 170850Z 31006KT M03/M06 A3011 RMK A01 T10331058  RH  083%=      5-min Rain = 0
KSVS 170855Z 30005KT M04/M06 A3011 RMK A01 T10361060  RH  083%=      5-min Rain = 0
KSVS 170900Z 30005KT M04/M06 A3011 RMK A01 T10371060  RH  084%=      5-min Rain = 0
KSVS 170905Z 30005KT M04/M06 A3011 RMK A01 T10351059  RH  084%=      5-min Rain = 0
KSVS 170910Z 31005KT M03/M06 A3011 RMK A01 T10341059  RH  083%=      5-min Rain = 0
KSVS 170915Z 31005KT M03/M06 A3011 RMK A01 T10341059  RH  082%=      5-min Rain = 0
KSVS 170920Z 31005KT M04/M06 A3011 RMK A01 T10391064  RH  083%=      5-min Rain = 0
KSVS 170925Z 31006KT M04/M06 A3011 RMK A01 T10391063  RH  084%=      5-min Rain = 0
KSVS 170930Z 33006KT M04/M06 A3011 RMK A01 T10411064  RH  085%=      5-min Rain = 0
KSVS 170935Z 33006KT M04/M06 A3011 RMK A01 T10381061  RH  084%=      5-min Rain = 0
KSVS 170940Z 33006KT M04/M07 A3011 RMK A01 T10411065  RH  084%=      5-min Rain = 0
KSVS 170945Z 34007KT M05/M07 A3011 RMK A01 T10471069  RH  085%=      5-min Rain = 0
KSVS 170950Z 33007KT M05/M07 A3011 RMK A01 T10481069  RH  086%=      5-min Rain = 0
KSVS 170955Z 34006KT M05/M07 A3011 RMK A01 T10461065  RH  086%=      5-min Rain = 0
KSVS 171000Z 35003KT M05/M07 A3011 RMK A01 T10461067  RH  086%=      5-min Rain = 0
KSVS 171005Z 34004KT M05/M07 A3011 RMK A01 T10461066  RH  086%=      5-min Rain = 0
KSVS 171010Z 34005KT M04/M06 A3011 RMK A01 T10421063  RH  086%=      5-min Rain = 0
KSVS 171015Z 34005KT M04/M07 A3011 RMK A01 T10401065  RH  083%=      5-min Rain = 0
KSVS 171020Z 34005KT M04/M06 A301 RMK A01 T10371063  RH  082%=      5-min Rain = 0
KSVS 171025Z 34004KT M04/M07 A301 RMK A01 T10401068  RH  081%=      5-min Rain = 0
KSVS 171030Z 35004KT M04/M06 A301 RMK A01 T10381063  RH  083%=      5-min Rain = 0
KSVS 171035Z 35004KT M04/M06 A301 RMK A01 T10351063  RH  081%=      5-min Rain = 0
KSVS 171040Z 00004KT M03/M06 A301 RMK A01 T10271057  RH  080%=      5-min Rain = 0
KSVS 171045Z 01003KT M03/M06 A301 RMK A01 T10261062  RH  076%=      5-min Rain = 0
KSVS 171050Z 02004KT M03/M06 A301 RMK A01 T10291063  RH  078%=      5-min Rain = 0
KSVS 171055Z 02003KT M03/M06 A301 RMK A01 T10291062  RH  078%=      5-min Rain = 0
KSVS 171100Z 36002KT M03/M06 A301 RMK A01 T10271060  RH  078%=      5-min Rain = 0
KSVS 171105Z 32001KT M03/M07 A301 RMK A01 T10331070  RH  076%=      5-min Rain = 0
KSVS 171110Z 30002KT M05/M08 A301 RMK A01 T10481078  RH  079%=      5-min Rain = 0
KSVS 171115Z 28002KT M06/M08 A301 RMK A01 T10551081  RH  082%=      5-min Rain = 0
KSVS 171120Z 27002KT M06/M08 A3011 RMK A01 T10551076  RH  085%=      5-min Rain = 0
KSVS 171125Z 27002KT M06/M08 A3011 RMK A01 T10561079  RH  084%=      5-min Rain = 0
KSVS 171130Z 28001KT M06/M08 A3011 RMK A01 T10581078  RH  086%=      5-min Rain = 0
KSVS 171135Z 28002KT M05/M07 A3011 RMK A01 T10521073  RH  085%=      5-min Rain = 0
KSVS 171140Z 26003KT M05/M08 A3011 RMK A01 T10531075  RH  084%=      5-min Rain = 0
KSVS 171145Z 26003KT M06/M08 A3011 RMK A01 T10561077  RH  085%=      5-min Rain = 0
KSVS 171150Z 26004KT M06/M08 A3011 RMK A01 T10571078  RH  086%=      5-min Rain = 0
KSVS 171155Z 26004KT M06/M08 A3011 RMK A01 T10591079  RH  086%=      5-min Rain = 0
KSVS 171200Z 26004KT M06/M08 A3012 RMK A01 T10611080  RH  086%=      5-min Rain = 0
KSVS 171205Z 27004KT M06/M08 A3012 RMK A01 T10591078  RH  086%=      5-min Rain = 0
KSVS 171210Z 27004KT M06/M08 A3012 RMK A01 T10621081  RH  086%=      5-min Rain = 0
KSVS 171215Z 26004KT M06/M08 A3013 RMK A01 T10641082  RH  087%=      5-min Rain = 0
KSVS 171220Z 26005KT M06/M08 A3013 RMK A01 T10641081  RH  088%=      5-min Rain = 0
KSVS 171225Z 26005KT M06/M08 A3013 RMK A01 T10641080  RH  088%=      5-min Rain = 0
KSVS 171230Z 29004KT M07/M08 A3013 RMK A01 T10661082  RH  088%=      5-min Rain = 0
KSVS 171235Z 31005KT M07/M09 A3013 RMK A01 T10681085  RH  088%=      5-min Rain = 0
KSVS 171240Z 31004KT M07/M09 A3013 RMK A01 T10681086  RH  087%=      5-min Rain = 0
KSVS 171245Z 29004KT M07/M09 A3014 RMK A01 T10671086  RH  087%=      5-min Rain = 0
KSVS 171250Z 28004KT M06/M08 A3014 RMK A01 T10601080  RH  086%=      5-min Rain = 0
KSVS 171255Z 29004KT M06/M08 A3014 RMK A01 T10581080  RH  084%=      5-min Rain = 0
KSVS 171300Z 30004KT M06/M08 A3014 RMK A01 T10561079  RH  083%=      5-min Rain = 0
KSVS 171305Z 30004KT M06/M08 A3014 RMK A01 T10551080  RH  083%=      5-min Rain = 0
KSVS 171310Z 30004KT M06/M08 A3014 RMK A01 T10561080  RH  083%=      5-min Rain = 0
KSVS 171315Z 30005KT M05/M08 A3014 RMK A01 T10521078  RH  082%=      5-min Rain = 0
KSVS 171320Z 30005KT M05/M08 A3015 RMK A01 T10511079  RH  081%=      5-min Rain = 0
KSVS 171325Z 29005KT M05/M08 A3015 RMK A01 T10531079  RH  082%=      5-min Rain = 0
KSVS 171330Z 28005KT M06/M08 A3015 RMK A01 T10551080  RH  082%=      5-min Rain = 0
KSVS 171335Z 28005KT M06/M08 A3015 RMK A01 T10581081  RH  084%=      5-min Rain = 0
KSVS 171340Z 28005KT M06/M08 A3015 RMK A01 T10601082  RH  084%=      5-min Rain = 0
KSVS 171345Z 29005KT M06/M08 A3015 RMK A01 T10611082  RH  085%=      5-min Rain = 0
KSVS 171350Z 30005KT M06/M08 A3016 RMK A01 T10581079  RH  085%=      5-min Rain = 0
KSVS 171355Z 29005KT M06/M08 A3016 RMK A01 T10551077  RH  085%=      5-min Rain = 0
KSVS 171400Z 29005KT M05/M08 A3016 RMK A01 T10541077  RH  084%=      5-min Rain = 0
KSVS 171405Z 29006KT M06/M08 A3016 RMK A01 T10561079  RH  084%=      5-min Rain = 0
KSVS 171410Z 30006KT M06/M08 A3016 RMK A01 T10561079  RH  084%=      5-min Rain = 0
KSVS 171415Z 30006KT M05/M07 A3016 RMK A01 T10521074  RH  085%=      5-min Rain = 0
KSVS 171420Z 30005KT M05/M07 A3016 RMK A01 T10471069  RH  085%=      5-min Rain = 0
KSVS 171425Z 30005KT M04/M07 A3016 RMK A01 T10411065  RH  083%=      5-min Rain = 0
KSVS 171430Z 31005KT M04/M06 A3016 RMK A01 T10381064  RH  082%=      5-min Rain = 0
KSVS 171435Z 31005KT M04/M06 A3016 RMK A01 T10371063  RH  082%=      5-min Rain = 0
KSVS 171440Z 30005KT M04/M06 A3015 RMK A01 T10351061  RH  083%=      5-min Rain = 0
KSVS 171445Z 30005KT M03/M06 A3016 RMK A01 T10331059  RH  083%=      5-min Rain = 0
KSVS 171450Z 29004KT M03/M06 A3016 RMK A01 T10311057  RH  083%=      5-min Rain = 0
KSVS 171455Z 30004KT M03/M05 A3017 RMK A01 T10281053  RH  083%=      5-min Rain = 0
KSVS 171500Z 31004KT M02/M05 A3017 RMK A01 T10241049  RH  083%=      5-min Rain = 0
KSVS 171505Z 31003KT M02/M05 A3018 RMK A01 T10191046  RH  082%=      5-min Rain = 0
KSVS 171510Z 31003KT M01/M04 A3018 RMK A01 T10141044  RH  081%=      5-min Rain = 0
KSVS 171515Z 30004KT M01/M04 A3018 RMK A01 T10101043  RH  079%=      5-min Rain = 0
KSVS 171520Z 29003KT M01/M04 A3017 RMK A01 T10071043  RH  077%=      5-min Rain = 0
KSVS 171525Z 26002KT M00/M04 A3017 RMK A01 T10041043  RH  075%=      5-min Rain = 0
KSVS 171530Z 23002KT 00/M04 A3018 RMK A01 T00021041  RH  074%=      5-min Rain = 0
KSVS 171535Z 26001KT 01/M04 A3018 RMK A01 T00081039  RH  071%=      5-min Rain = 0
KSVS 171540Z 28002KT 02/M04 A3018 RMK A01 T00191036  RH  067%=      5-min Rain = 0
KSVS 171545Z 31002KT 03/M04 A3018 RMK A01 T00261036  RH  064%=      5-min Rain = 0
KSVS 171550Z 31004KT 03/M04 A3019 RMK A01 T00321036  RH  061%=      5-min Rain = 0
KSVS 171555Z 33006KT 04/M04 A3019 RMK A01 T00391037  RH  058%=      5-min Rain = 0
KSVS 171600Z 34007KT 04/M04 A3019 RMK A01 T00441037  RH  056%=      5-min Rain = 0
KSVS 171605Z 36009KT 05/M04 A3019 RMK A01 T00511041  RH  052%=      5-min Rain = 0
KSVS 171610Z 00009KT 05/M05 A3019 RMK A01 T00531047  RH  049%=      5-min Rain = 0
KSVS 171615Z 36009KT 06/M05 A302 RMK A01 T00551048  RH  048%=      5-min Rain = 0
KSVS 171620Z 36010KT 06/M05 A302 RMK A01 T00561051  RH  046%=      5-min Rain = 0
KSVS 171625Z 01009KT 06/M05 A302 RMK A01 T00591050  RH  046%=      5-min Rain = 0
KSVS 171630Z 00009KT 06/M05 A3019 RMK A01 T00621050  RH  044%=      5-min Rain = 0
KSVS 171635Z 00008KT 07/M05 A3019 RMK A01 T00651049  RH  044%=      5-min Rain = 0
KSVS 171640Z 01009KT 07/M05 A3019 RMK A01 T00651054  RH  043%=      5-min Rain = 0
KSVS 171645Z 36009KT 07/M05 A3019 RMK A01 T00671054  RH  042%=      5-min Rain = 0
KSVS 171650Z 00009KT 07/M06 A3019 RMK A01 T00661056  RH  041%=      5-min Rain = 0
KSVS 171655Z 00010KT 07/M06 A3019 RMK A01 T00681056  RH  041%=      5-min Rain = 0
KSVS 171700Z 35008KT 07/M06 A302 RMK A01 T00681056  RH  041%=      5-min Rain = 0
KSVS 171705Z 01008KT 07/M06 A302 RMK A01 T00691056  RH  041%=      5-min Rain = 0
KSVS 171710Z 35009KT 07/M06 A302 RMK A01 T00701056  RH  040%=      5-min Rain = 0
KSVS 171715Z 36008KT 07/M06 A302 RMK A01 T00721055  RH  040%=      5-min Rain = 0
KSVS 171720Z 35008KT 07/M06 A3019 RMK A01 T00721058  RH  039%=      5-min Rain = 0
KSVS 171725Z 36006KT 07/M06 A3019 RMK A01 T00741060  RH  038%=      5-min Rain = 0
KSVS 171730Z 34008KT 08/M06 A3019 RMK A01 T00751060  RH  038%=      5-min Rain = 0
KSVS 171735Z 34007KT 08/M06 A3019 RMK A01 T00761061  RH  037%=      5-min Rain = 0
KSVS 171740Z 34007KT 08/M06 A3018 RMK A01 T00791061  RH  036%=      5-min Rain = 0
KSVS 171745Z 34006KT 08/M07 A3018 RMK A01 T00771067  RH  035%=      5-min Rain = 0
KSVS 171750Z 35007KT 08/M07 A3018 RMK A01 T00791068  RH  034%=      5-min Rain = 0
KSVS 171755Z 01007KT 08/M07 A3017 RMK A01 T00791071  RH  034%=      5-min Rain = 0
KSVS 171800Z 34008KT 08/M07 A3017 RMK A01 T00811073  RH  033%=      5-min Rain = 0
KSVS 171805Z 35008KT 08/M07 A3016 RMK A01 T00801074  RH  033%=      5-min Rain = 0
KSVS 171810Z 36007KT 08/M07 A3016 RMK A01 T00821072  RH  033%=      5-min Rain = 0
KSVS 171815Z 01007KT 08/M07 A3015 RMK A01 T00811072  RH  033%=      5-min Rain = 0
KSVS 171820Z 36008KT 08/M07 A3015 RMK A01 T00831073  RH  032%=      5-min Rain = 0
KSVS 171825Z 36006KT 09/M07 A3014 RMK A01 T00861072  RH  032%=      5-min Rain = 0
KSVS 171830Z 01006KT 09/M07 A3014 RMK A01 T00861071  RH  032%=      5-min Rain = 0
KSVS 171835Z 00007KT 09/M07 A3014 RMK A01 T00861070  RH  032%=      5-min Rain = 0
KSVS 171840Z 00006KT 09/M07 A3013 RMK A01 T00851072  RH  032%=      5-min Rain = 0
KSVS 171845Z 36006KT 09/M07 A3013 RMK A01 T00871070  RH  032%=      5-min Rain = 0
KSVS 171850Z 02006KT 09/M07 A3013 RMK A01 T00881070  RH  032%=      5-min Rain = 0
KSVS 171855Z 02005KT 09/M07 A3013 RMK A01 T00881070  RH  032%=      5-min Rain = 0
KSVS 171900Z 01004KT 09/M07 A3012 RMK A01 T00851070  RH  033%=      5-min Rain = 0
KSVS 171905Z 02003KT 09/M07 A3012 RMK A01 T00911067  RH  032%=      5-min Rain = 0
KSVS 171910Z 02005KT 09/M07 A3011 RMK A01 T00931067  RH  032%=      5-min Rain = 0
KSVS 171915Z 36005KT 09/M07 A3011 RMK A01 T00911067  RH  032%=      5-min Rain = 0
KSVS 171920Z 03002KT 09/M07 A3011 RMK A01 T00921068  RH  032%=      5-min Rain = 0
KSVS 171925Z 31003KT 09/M07 A3011 RMK A01 T00941067  RH  031%=      5-min Rain = 0
KSVS 171930Z 01003KT 10/M06 A3011 RMK A01 T00981064  RH  031%=      5-min Rain = 0
KSVS 171935Z 35007KT 10/M07 A3011 RMK A01 T01011067  RH  030%=      5-min Rain = 0
KSVS 171940Z 01005KT 10/M07 A3011 RMK A01 T00961068  RH  031%=      5-min Rain = 0
KSVS 171945Z 01003KT 10/M07 A3011 RMK A01 T00961067  RH  031%=      5-min Rain = 0
KSVS 171950Z 31006KT 10/M07 A3011 RMK A01 T00991065  RH  031%=      5-min Rain = 0
KSVS 171955Z 33003KT 10/M07 A3011 RMK A01 T00981068  RH  031%=      5-min Rain = 0
KSVS 172000Z 32006G11KT 10/M07 A301 RMK A01 T01021068  RH  030%=      5-min Rain = 0
KSVS 172005Z 32007KT 10/M07 A301 RMK A01 T01001068  RH  030%=      5-min Rain = 0
KSVS 172010Z 31004KT 10/M07 A301 RMK A01 T01001069  RH  030%=      5-min Rain = 0
KSVS 172015Z 32004G9KT 10/M07 A301 RMK A01 T01001068  RH  030%=      5-min Rain = 0
KSVS 172020Z 34005G11KT 10/M07 A301 RMK A01 T01001068  RH  030%=      5-min Rain = 0
KSVS 172025Z 30004KT 10/M07 A301 RMK A01 T01001068  RH  030%=      5-min Rain = 0
KSVS 172030Z 29005KT 10/M07 A301 RMK A01 T01001069  RH  030%=      5-min Rain = 0
KSVS 172035Z 34005KT 10/M07 A3009 RMK A01 T01011069  RH  030%=      5-min Rain = 0
KSVS 172040Z 32006KT 10/M07 A3009 RMK A01 T01031067  RH  030%=      5-min Rain = 0
KSVS 172045Z 29004KT 10/M07 A3009 RMK A01 T01011068  RH  030%=      5-min Rain = 0
KSVS 172050Z 29005KT 10/M07 A3009 RMK A01 T01021067  RH  030%=      5-min Rain = 0
KSVS 172055Z 35005KT 10/M07 A3009 RMK A01 T01031066  RH  030%=      5-min Rain = 0
KSVS 172100Z 34003KT 10/M07 A3009 RMK A01 T01011067  RH  030%=      5-min Rain = 0
KSVS 172105Z 24002KT 11/M07 A3009 RMK A01 T01051066  RH  029%=      5-min Rain = 0
KSVS 172110Z 21001KT 11/M07 A3009 RMK A01 T01071065  RH  029%=      5-min Rain = 0
KSVS 172115Z 28002KT 11/M07 A3009 RMK A01 T01071065  RH  029%=      5-min Rain = 0
KSVS 172120Z 34004G9KT 11/M07 A3009 RMK A01 T01061065  RH  030%=      5-min Rain = 0
KSVS 172125Z 32005KT 10/M07 A3009 RMK A01 T01041065  RH  030%=      5-min Rain = 0
KSVS 172130Z 30004KT 11/M06 A3009 RMK A01 T01061064  RH  030%=      5-min Rain = 0
KSVS 172135Z 32002KT 11/M07 A3009 RMK A01 T01051065  RH  030%=      5-min Rain = 0
KSVS 172140Z 31003KT 11/M06 A3008 RMK A01 T01081064  RH  029%=      5-min Rain = 0
KSVS 172145Z 33004KT 11/M06 A3008 RMK A01 T01061064  RH  030%=      5-min Rain = 0
KSVS 172150Z 32002KT 11/M07 A3008 RMK A01 T01051065  RH  030%=      5-min Rain = 0
KSVS 172155Z 28004KT 11/M06 A3008 RMK A01 T01061064  RH  030%=      5-min Rain = 0
KSVS 172200Z 24005KT 11/M07 A3008 RMK A01 T01061065  RH  029%=      5-min Rain = 0
KSVS 172205Z 25005KT 11/M06 A3008 RMK A01 T01071063  RH  030%=      5-min Rain = 0
KSVS 172210Z 24004KT 11/M06 A3008 RMK A01 T01071064  RH  030%=      5-min Rain = 0
KSVS 172215Z 22005KT 11/M06 A3008 RMK A01 T01091064  RH  029%=      5-min Rain = 0
KSVS 172220Z 22005KT 11/M07 A3007 RMK A01 T01061065  RH  029%=      5-min Rain = 0
KSVS 172225Z 27003KT 11/M07 A3007 RMK A01 T01051065  RH  030%=      5-min Rain = 0
KSVS 172230Z 25005KT 10/M07 A3007 RMK A01 T01021065  RH  030%=      5-min Rain = 0
KSVS 172235Z 25006KT 10/M06 A3007 RMK A01 T01031064  RH  030%=      5-min Rain = 0
KSVS 172240Z 26005KT 10/M06 A3007 RMK A01 T01041063  RH  030%=      5-min Rain = 0
KSVS 172245Z 28003KT 10/M06 A3007 RMK A01 T01041064  RH  030%=      5-min Rain = 0
KSVS 172250Z 23004KT 10/M06 A3007 RMK A01 T01041064  RH  030%=      5-min Rain = 0
KSVS 172255Z 21005KT 10/M06 A3007 RMK A01 T01041062  RH  031%=      5-min Rain = 0
KSVS 172300Z 23007KT 10/M06 A3006 RMK A01 T01011064  RH  031%=      5-min Rain = 0
KSVS 172305Z 22006KT 10/M06 A3006 RMK A01 T00981064  RH  031%=      5-min Rain = 0
KSVS 172310Z 21005KT 10/M07 A3006 RMK A01 T00981065  RH  031%=      5-min Rain = 0
KSVS 172315Z 22005KT 10/M06 A3006 RMK A01 T00961064  RH  032%=      5-min Rain = 0
KSVS 172320Z 23006KT 09/M07 A3006 RMK A01 T00921065  RH  032%=      5-min Rain = 0
KSVS 172325Z 22006KT 09/M07 A3006 RMK A01 T00891065  RH  033%=      5-min Rain = 0
KSVS 172330Z 22005KT 08/M07 A3006 RMK A01 T00841065  RH  034%=      5-min Rain = 0
KSVS 172335Z 22006KT 08/M07 A3006 RMK A01 T00821065  RH  035%=      5-min Rain = 0
KSVS 172340Z 21006KT 08/M07 A3006 RMK A01 T00801066  RH  035%=      5-min Rain = 0
KSVS 172345Z 21005KT 07/M07 A3006 RMK A01 T00731068  RH  036%=      5-min Rain = 0
KSVS 172350Z 21005KT 07/M07 A3006 RMK A01 T00711067  RH  037%=      5-min Rain = 0
KSVS 172355Z 22006KT 07/M07 A3006 RMK A01 T00661068  RH  038%=      5-min Rain = 0
KSVS 180000Z 22007KT 06/M07 A3006 RMK A01 T00591069  RH  040%=      5-min Rain = 0
KSVS 180005Z 22006KT 05/M07 A3006 RMK A01 T00531070  RH  041%=      5-min Rain = 0
KSVS 180010Z 22006KT 05/M07 A3006 RMK A01 T00541068  RH  041%=      5-min Rain = 0
KSVS 180015Z 21006KT 06/M07 A3006 RMK A01 T00591066  RH  040%=      5-min Rain = 0
KSVS 180020Z 21006KT 06/M07 A3006 RMK A01 T00601067  RH  040%=      5-min Rain = 0
KSVS 180025Z 21006KT 05/M07 A3006 RMK A01 T00481071  RH  042%=      5-min Rain = 0
KSVS 180030Z 21006KT 05/M07 A3006 RMK A01 T00451070  RH  043%=      5-min Rain = 0
KSVS 180035Z 20006KT 05/M07 A3006 RMK A01 T00481067  RH  043%=      5-min Rain = 0
KSVS 180040Z 20006KT 06/M07 A3006 RMK A01 T00591065  RH  040%=      5-min Rain = 0
KSVS 180045Z 20006KT 05/M07 A3006 RMK A01 T00541070  RH  040%=      5-min Rain = 0
KSVS 180050Z 21006KT 03/M07 A3007 RMK A01 T00321074  RH  045%=      5-min Rain = 0
KSVS 180055Z 22006KT 03/M07 A3006 RMK A01 T00281072  RH  048%=      5-min Rain = 0
KSVS 180100Z 21006KT 04/M07 A3006 RMK A01 T00351069  RH  047%=      5-min Rain = 0
KSVS 180105Z 21006KT 04/M07 A3006 RMK A01 T00411068  RH  045%=      5-min Rain = 0
KSVS 180110Z 21006KT 03/M07 A3007 RMK A01 T00341071  RH  046%=      5-min Rain = 0
KSVS 180115Z 21006KT 03/M07 A3006 RMK A01 T00251073  RH  049%=      5-min Rain = 0
KSVS 180120Z 21007KT 02/M07 A3006 RMK A01 T00181073  RH  051%=      5-min Rain = 0
KSVS 180125Z 21008KT 02/M07 A3006 RMK A01 T00171070  RH  052%=      5-min Rain = 0
KSVS 180130Z 21008KT 02/M07 A3006 RMK A01 T00191071  RH  051%=      5-min Rain = 0
KSVS 180135Z 20008KT 02/M07 A3006 RMK A01 T00191072  RH  051%=      5-min Rain = 0
KSVS 180140Z 20009KT 02/M07 A3005 RMK A01 T00161071  RH  053%=      5-min Rain = 0
KSVS 180145Z 20009KT 03/M07 A3005 RMK A01 T00261066  RH  051%=      5-min Rain = 0
KSVS 180150Z 19008KT 04/M07 A3005 RMK A01 T00371065  RH  047%=      5-min Rain = 0
KSVS 180155Z 20009KT 03/M07 A3005 RMK A01 T00281069  RH  049%=      5-min Rain = 0
KSVS 180200Z 20008KT 01/M07 A3005 RMK A01 T00101073  RH  054%=      5-min Rain = 0
KSVS 180205Z 20009KT M00/M07 A3005 RMK A01 T10011073  RH  058%=      5-min Rain = 0
KSVS 180210Z 20010KT M00/M07 A3004 RMK A01 T10011072  RH  059%=      5-min Rain = 0
KSVS 180215Z 21009KT 00/M07 A3004 RMK A01 T00021067  RH  060%=      5-min Rain = 0
KSVS 180220Z 20010KT 01/M07 A3004 RMK A01 T00101065  RH  058%=      5-min Rain = 0
KSVS 180225Z 21010KT 01/M06 A3004 RMK A01 T00091064  RH  058%=      5-min Rain = 0
KSVS 180230Z 21009KT 01/M06 A3004 RMK A01 T00111062  RH  058%=      5-min Rain = 0
KSVS 180235Z 21008KT 01/M06 A3004 RMK A01 T00071064  RH  059%=      5-min Rain = 0
KSVS 180240Z 22008KT M00/M07 A3004 RMK A01 T10031068  RH  061%=      5-min Rain = 0
KSVS 180245Z 22008KT M02/M07 A3004 RMK A01 T10151073  RH  065%=      5-min Rain = 0
KSVS 180250Z 22009KT M02/M07 A3004 RMK A01 T10211073  RH  068%=      5-min Rain = 0
KSVS 180255Z 22009KT M02/M07 A3003 RMK A01 T10211071  RH  069%=      5-min Rain = 0
KSVS 180300Z 22009KT M02/M07 A3004 RMK A01 T10191068  RH  069%=      5-min Rain = 0
KSVS 180305Z 21008KT M01/M06 A3003 RMK A01 T10131063  RH  069%=      5-min Rain = 0
KSVS 180310Z 21009KT M01/M06 A3003 RMK A01 T10071059  RH  068%=      5-min Rain = 0
KSVS 180315Z 21009KT M01/M06 A3003 RMK A01 T10061059  RH  068%=      5-min Rain = 0
KSVS 180320Z 21009KT M01/M06 A3003 RMK A01 T10111060  RH  069%=      5-min Rain = 0
KSVS 180325Z 21009KT M01/M06 A3002 RMK A01 T10141062  RH  070%=      5-min Rain = 0
KSVS 180330Z 21008KT M02/M06 A3003 RMK A01 T10181063  RH  071%=      5-min Rain = 0
KSVS 180335Z 21009KT M02/M06 A3002 RMK A01 T10211064  RH  072%=      5-min Rain = 0
KSVS 180340Z 21010KT M02/M06 A3002 RMK A01 T10191061  RH  073%=      5-min Rain = 0
KSVS 180345Z 21009KT M02/M06 A3002 RMK A01 T10161059  RH  073%=      5-min Rain = 0
KSVS 180350Z 21009KT M02/M06 A3002 RMK A01 T10151058  RH  073%=      5-min Rain = 0
KSVS 180355Z 21008KT M01/M06 A3001 RMK A01 T10081055  RH  070%=      5-min Rain = 0
KSVS 180400Z 21007KT M01/M06 A3001 RMK A01 T10121060  RH  070%=      5-min Rain = 0
KSVS 180405Z 22008KT M02/M06 A3001 RMK A01 T10211063  RH  073%=      5-min Rain = 0
KSVS 180410Z 22009KT M02/M06 A30 RMK A01 T10211060  RH  075%=      5-min Rain = 0
KSVS 180415Z 22009KT M01/M06 A30 RMK A01 T10141056  RH  073%=      5-min Rain = 0
KSVS 180420Z 22009KT M01/M06 A30 RMK A01 T10111055  RH  072%=      5-min Rain = 0
KSVS 180425Z 22010KT M01/M06 A2999 RMK A01 T10111056  RH  071%=      5-min Rain = 0
KSVS 180430Z 22011KT M01/M06 A2999 RMK A01 T10121056  RH  072%=      5-min Rain = 0
KSVS 180435Z 23010KT M01/M06 A2999 RMK A01 T10131057  RH  072%=      5-min Rain = 0
KSVS 180440Z 23010KT M01/M06 A2999 RMK A01 T10131058  RH  072%=      5-min Rain = 0
KSVS 180445Z 23010KT M01/M06 A2999 RMK A01 T10111056  RH  072%=      5-min Rain = 0
KSVS 180450Z 23009KT M01/M06 A2999 RMK A01 T10121057  RH  072%=      5-min Rain = 0
KSVS 180455Z 23008KT M02/M06 A2999 RMK A01 T10161058  RH  073%=      5-min Rain = 0
KSVS 180500Z 22008KT M02/M06 A2999 RMK A01 T10201060  RH  074%=      5-min Rain = 0
KSVS 180505Z 22008KT M03/M06 A2999 RMK A01 T10251062  RH  076%=      5-min Rain = 0
KSVS 180510Z 23009KT M03/M06 A2998 RMK A01 T10271062  RH  077%=      5-min Rain = 0
KSVS 180515Z 23010KT M03/M06 A2998 RMK A01 T10261059  RH  078%=      5-min Rain = 0
KSVS 180520Z 23011KT M02/M06 A2998 RMK A01 T10241059  RH  077%=      5-min Rain = 0
KSVS 180525Z 23009KT M02/M06 A2997 RMK A01 T10241060  RH  077%=      5-min Rain = 0
KSVS 180530Z 22009KT M02/M06 A2997 RMK A01 T10241060  RH  077%=      5-min Rain = 0
KSVS 180535Z 22009KT M03/M06 A2997 RMK A01 T10271061  RH  078%=      5-min Rain = 0
KSVS 180540Z 22009KT M03/M06 A2996 RMK A01 T10271060  RH  078%=      5-min Rain = 0
KSVS 180545Z 22008KT M03/M06 A2996 RMK A01 T10261060  RH  078%=      5-min Rain = 0
KSVS 180550Z 22008KT M03/M06 A2996 RMK A01 T10261060  RH  077%=      5-min Rain = 0
KSVS 180555Z 22009KT M03/M06 A2996 RMK A01 T10291062  RH  078%=      5-min Rain = 0

Page generated in 0.0087 seconds.